createdAt,value
2019-06-07T00:00:39.441Z,34.90
2019-06-07T00:01:30.446Z,31.20
2019-06-07T00:02:30.450Z,32.70
2019-06-07T00:03:30.546Z,28.70
2019-06-07T00:04:30.436Z,30.70
2019-06-07T00:05:30.435Z,27.70
2019-06-07T00:06:30.434Z,33.40
2019-06-07T00:07:30.441Z,31.40
2019-06-07T00:08:30.433Z,33.50
2019-06-07T00:09:30.434Z,32.10
2019-06-07T00:10:36.530Z,31.70
2019-06-07T00:11:30.461Z,28.70
2019-06-07T00:12:30.463Z,32.00
2019-06-07T00:13:30.433Z,28.40
2019-06-07T00:14:30.432Z,30.30
2019-06-07T00:15:30.434Z,29.10
2019-06-07T00:16:30.428Z,29.20
2019-06-07T00:17:30.437Z,28.40
2019-06-07T00:18:30.429Z,27.30
2019-06-07T00:19:30.431Z,29.70
2019-06-07T00:20:30.428Z,31.70
2019-06-07T00:22:12.928Z,29.60
2019-06-07T00:22:33.445Z,34.90
2019-06-07T00:23:30.425Z,33.30
2019-06-07T00:24:30.422Z,30.10
2019-06-07T00:25:30.425Z,29.30
2019-06-07T00:26:30.424Z,29.00
2019-06-07T00:27:30.458Z,29.40
2019-06-07T00:28:30.423Z,28.90
2019-06-07T00:29:30.422Z,30.80
2019-06-07T00:30:42.368Z,32.30
2019-06-07T00:31:30.417Z,31.80
2019-06-07T00:32:30.429Z,32.90
2019-06-07T00:33:30.421Z,30.90
2019-06-07T00:34:30.424Z,29.80
2019-06-07T00:35:30.420Z,31.50
2019-06-07T00:36:30.450Z,33.40
2019-06-07T00:37:30.433Z,33.80
2019-06-07T00:38:30.417Z,32.50
2019-06-07T00:39:30.417Z,31.20
2019-06-07T00:40:32.286Z,31.40
2019-06-07T00:41:30.427Z,38.70
2019-06-07T00:42:30.419Z,30.50
2019-06-07T00:43:30.431Z,37.40
2019-06-07T00:44:30.434Z,35.80
2019-06-07T00:45:30.413Z,35.60
2019-06-07T00:46:30.410Z,38.70
2019-06-07T00:47:30.416Z,36.10
2019-06-07T00:48:32.986Z,34.10
2019-06-07T00:49:40.437Z,37.00
2019-06-07T00:50:30.409Z,37.20
2019-06-07T00:51:49.603Z,37.50
2019-06-07T00:53:32.584Z,37.40
2019-06-07T00:54:30.408Z,37.90
2019-06-07T00:55:30.410Z,40.20
2019-06-07T00:56:30.409Z,40.40
2019-06-07T00:57:30.406Z,40.80
2019-06-07T00:58:30.417Z,42.30
2019-06-07T00:59:30.404Z,37.40
2019-06-07T01:00:30.409Z,38.50
2019-06-07T01:01:30.403Z,34.80
2019-06-07T01:02:31.649Z,35.60
2019-06-07T01:03:30.418Z,35.10
2019-06-07T01:04:30.403Z,38.00
2019-06-07T01:05:31.633Z,36.90
2019-06-07T01:06:30.401Z,31.40
2019-06-07T01:07:30.402Z,31.40
2019-06-07T01:08:30.920Z,31.90
2019-06-07T01:09:30.410Z,32.90
2019-06-07T01:10:52.444Z,30.50
2019-06-07T01:11:30.393Z,38.20
2019-06-07T01:12:30.394Z,34.40
2019-06-07T01:13:30.449Z,35.40
2019-06-07T01:14:30.402Z,37.90
2019-06-07T01:15:30.395Z,41.80
2019-06-07T01:16:54.841Z,36.70
2019-06-07T01:17:39.664Z,44.10
2019-06-07T01:18:38.330Z,42.70
2019-06-07T01:19:30.395Z,39.70
2019-06-07T01:20:30.392Z,45.40
2019-06-07T01:21:30.402Z,44.20
2019-06-07T01:22:30.399Z,38.50
2019-06-07T01:24:30.384Z,53.30
2019-06-07T01:25:30.392Z,45.80
2019-06-07T01:26:30.623Z,47.40
2019-06-07T01:27:30.392Z,40.50
2019-06-07T01:28:30.416Z,50.00
2019-06-07T01:29:31.186Z,45.30
2019-06-07T01:30:30.385Z,38.50
2019-06-07T01:31:31.489Z,47.20
2019-06-07T01:32:31.856Z,42.60
2019-06-07T01:33:49.750Z,44.90
2019-06-07T01:34:30.385Z,42.10
2019-06-07T01:35:30.387Z,40.10
2019-06-07T01:36:31.138Z,44.50
2019-06-07T01:37:30.585Z,45.00
2019-06-07T01:38:30.393Z,52.30
2019-06-07T01:39:31.864Z,50.50
2019-06-07T01:40:32.676Z,44.40
2019-06-07T01:41:30.931Z,46.70
2019-06-07T01:42:31.029Z,38.00
2019-06-07T01:43:31.014Z,43.50
2019-06-07T01:44:31.282Z,40.30
2019-06-07T01:45:31.188Z,40.20
2019-06-07T01:46:30.378Z,37.60
2019-06-07T01:47:32.173Z,36.30
2019-06-07T01:48:48.448Z,42.50
2019-06-07T01:49:30.388Z,41.50
2019-06-07T01:50:30.377Z,43.10
2019-06-07T01:51:30.662Z,36.90
2019-06-07T01:52:44.993Z,37.50
2019-06-07T01:53:31.573Z,33.70
2019-06-07T01:55:32.762Z,39.60
2019-06-07T01:56:30.376Z,36.30
2019-06-07T01:57:44.233Z,38.90
2019-06-07T01:58:30.370Z,37.30
2019-06-07T01:59:31.371Z,30.80
2019-06-07T02:00:32.538Z,34.00
2019-06-07T02:01:35.078Z,34.20
2019-06-07T02:02:31.829Z,34.30
2019-06-07T02:03:33.117Z,31.70
2019-06-07T02:04:33.021Z,32.80
2019-06-07T02:05:32.284Z,37.50
2019-06-07T02:06:32.220Z,36.20
2019-06-07T02:07:33.194Z,36.40
2019-06-07T02:08:34.395Z,32.30
2019-06-07T02:09:31.835Z,34.70
2019-06-07T02:10:33.437Z,37.70
2019-06-07T02:11:31.814Z,37.90
2019-06-07T02:12:40.327Z,38.00
2019-06-07T02:13:30.800Z,31.70
2019-06-07T02:14:33.212Z,37.70
2019-06-07T02:15:36.144Z,35.20
2019-06-07T02:16:32.512Z,38.60
2019-06-07T02:17:32.881Z,36.00
2019-06-07T02:18:34.668Z,35.90
2019-06-07T02:19:31.711Z,34.70
2019-06-07T02:20:34.242Z,40.20
2019-06-07T02:21:31.553Z,41.20
2019-06-07T02:22:32.385Z,39.40
2019-06-07T02:23:33.053Z,41.30
2019-06-07T02:24:35.056Z,36.50
2019-06-07T02:25:46.603Z,42.50
2019-06-07T02:26:32.580Z,41.50
2019-06-07T02:27:32.597Z,39.60
2019-06-07T02:28:44.290Z,38.50
2019-06-07T02:29:33.323Z,36.60
2019-06-07T02:30:47.197Z,38.00
2019-06-07T02:31:38.275Z,39.90
2019-06-07T02:32:34.648Z,41.80
2019-06-07T02:33:35.110Z,37.20
2019-06-07T02:34:36.019Z,39.10
2019-06-07T02:35:34.870Z,45.40
2019-06-07T02:36:38.461Z,38.30
2019-06-07T02:37:34.105Z,37.70
2019-06-07T02:38:35.915Z,40.20
2019-06-07T02:39:34.498Z,36.00
2019-06-07T02:40:34.549Z,35.60
2019-06-07T02:41:35.947Z,40.20
2019-06-07T02:42:39.121Z,37.60
2019-06-07T02:43:34.388Z,42.60
2019-06-07T02:44:37.819Z,39.30
2019-06-07T02:45:37.871Z,39.30
2019-06-07T02:46:40.171Z,41.90
2019-06-07T02:47:33.642Z,43.00
2019-06-07T02:48:35.257Z,44.00
2019-06-07T02:49:36.102Z,42.10
2019-06-07T02:50:35.394Z,41.30
2019-06-07T02:51:35.878Z,41.20
2019-06-07T02:52:34.409Z,45.20
2019-06-07T02:53:33.675Z,35.60
2019-06-07T02:54:36.112Z,42.50
2019-06-07T02:55:34.643Z,37.90
2019-06-07T02:56:52.495Z,40.20
2019-06-07T02:57:36.803Z,51.40
2019-06-07T02:58:35.300Z,39.10
2019-06-07T02:59:59.681Z,35.60
2019-06-07T03:01:05.484Z,41.10
2019-06-07T03:01:32.457Z,39.40
2019-06-07T03:02:33.547Z,34.50
2019-06-07T03:03:32.580Z,38.00
2019-06-07T03:04:36.795Z,39.50
2019-06-07T03:05:34.197Z,41.50
2019-06-07T03:06:35.712Z,36.30
2019-06-07T03:07:33.025Z,37.00
2019-06-07T03:08:30.966Z,37.80
2019-06-07T03:09:32.825Z,36.50
2019-06-07T03:10:32.269Z,31.80
2019-06-07T03:11:31.793Z,31.30
2019-06-07T03:12:33.256Z,31.20
2019-06-07T03:13:31.932Z,23.70
2019-06-07T03:14:32.485Z,26.70
2019-06-07T03:15:39.551Z,23.50
2019-06-07T03:16:31.206Z,25.10
2019-06-07T03:17:34.678Z,25.80
2019-06-07T03:18:31.698Z,23.10
2019-06-07T03:19:31.347Z,24.20
2019-06-07T03:20:32.799Z,23.60
2019-06-07T03:21:31.498Z,24.40
2019-06-07T03:22:32.069Z,24.60
2019-06-07T03:23:32.411Z,26.10
2019-06-07T03:24:33.144Z,22.10
2019-06-07T03:25:30.852Z,24.60
2019-06-07T03:26:34.869Z,24.70
2019-06-07T03:27:36.015Z,24.20
2019-06-07T03:28:34.256Z,19.30
2019-06-07T03:29:31.616Z,23.60
2019-06-07T03:30:52.737Z,17.80
2019-06-07T03:31:32.651Z,20.40
2019-06-07T03:32:35.934Z,18.50
2019-06-07T03:33:33.414Z,19.40
2019-06-07T03:34:38.161Z,16.40
2019-06-07T03:35:32.357Z,18.80
2019-06-07T03:36:32.026Z,18.20
2019-06-07T03:37:34.800Z,17.90
2019-06-07T03:38:34.408Z,18.60
2019-06-07T03:39:31.399Z,18.80
2019-06-07T03:40:31.696Z,21.50
2019-06-07T03:41:38.612Z,18.70
2019-06-07T03:42:31.624Z,16.40
2019-06-07T03:43:32.674Z,18.30
2019-06-07T03:44:35.079Z,17.20
2019-06-07T03:45:32.340Z,18.50
2019-06-07T03:46:34.349Z,16.60
2019-06-07T03:47:32.318Z,17.90
2019-06-07T03:48:32.278Z,18.90
2019-06-07T03:49:31.542Z,18.50
2019-06-07T03:50:33.428Z,19.10
2019-06-07T03:51:32.227Z,19.50
2019-06-07T03:52:35.028Z,19.30
2019-06-07T03:53:31.129Z,18.90
2019-06-07T03:54:32.098Z,17.20
2019-06-07T03:55:31.243Z,16.50
2019-06-07T03:56:31.785Z,19.80
2019-06-07T03:57:37.145Z,19.50
2019-06-07T03:58:32.569Z,17.30
2019-06-07T03:59:35.563Z,20.50
2019-06-07T04:00:32.921Z,21.80
2019-06-07T04:01:31.959Z,20.10
2019-06-07T04:02:31.046Z,19.30
2019-06-07T04:03:37.014Z,20.20
2019-06-07T04:04:32.278Z,19.40
2019-06-07T04:05:32.751Z,19.40
2019-06-07T04:06:32.573Z,19.90
2019-06-07T04:07:31.160Z,24.00
2019-06-07T04:08:30.789Z,19.60
2019-06-07T04:09:33.718Z,21.10
2019-06-07T04:10:51.718Z,21.60
2019-06-07T04:11:30.294Z,17.60
2019-06-07T04:12:31.838Z,39.40
2019-06-07T04:13:34.277Z,27.30
2019-06-07T04:14:30.932Z,19.60
2019-06-07T04:15:30.671Z,19.10
2019-06-07T04:16:35.006Z,20.40
2019-06-07T04:17:32.026Z,23.00
2019-06-07T04:18:30.653Z,20.20
2019-06-07T04:19:32.316Z,18.30
2019-06-07T04:20:32.907Z,21.80
2019-06-07T04:21:31.942Z,20.00
2019-06-07T04:22:31.400Z,20.30
2019-06-07T04:23:32.809Z,21.30
2019-06-07T04:24:31.112Z,20.10
2019-06-07T04:25:33.897Z,20.80
2019-06-07T04:26:31.411Z,21.90
2019-06-07T04:27:30.620Z,22.50
2019-06-07T04:29:29.941Z,21.40
2019-06-07T04:29:33.791Z,22.90
2019-06-07T04:30:34.183Z,19.10
2019-06-07T04:31:32.186Z,22.20
2019-06-07T04:32:32.068Z,21.00
2019-06-07T04:33:31.211Z,22.00
2019-06-07T04:34:34.942Z,19.90
2019-06-07T04:35:31.370Z,20.20
2019-06-07T04:36:45.990Z,20.30
2019-06-07T04:37:30.921Z,21.20
2019-06-07T04:38:32.692Z,21.30
2019-06-07T04:39:33.509Z,21.60
2019-06-07T04:40:30.724Z,22.90
2019-06-07T04:41:31.045Z,18.80
2019-06-07T04:42:34.428Z,19.90
2019-06-07T04:43:31.361Z,18.00
2019-06-07T04:44:31.170Z,17.60
2019-06-07T04:45:36.237Z,19.30
2019-06-07T04:46:31.581Z,18.20
2019-06-07T04:47:33.358Z,16.20
2019-06-07T04:48:31.306Z,17.90
2019-06-07T04:49:32.645Z,17.80
2019-06-07T04:50:33.828Z,17.20
2019-06-07T04:51:31.788Z,16.90
2019-06-07T04:52:32.484Z,16.20
2019-06-07T04:53:34.397Z,18.10
2019-06-07T04:54:32.126Z,16.80
2019-06-07T04:55:31.495Z,15.50
2019-06-07T04:56:32.843Z,17.00
2019-06-07T04:57:33.475Z,15.60
2019-06-07T04:58:31.408Z,13.80
2019-06-07T05:00:04.205Z,17.30
2019-06-07T05:01:31.111Z,15.90
2019-06-07T05:02:31.907Z,16.60
2019-06-07T05:03:34.742Z,16.00
2019-06-07T05:04:31.702Z,15.50
2019-06-07T05:05:31.800Z,13.60
2019-06-07T05:06:32.929Z,15.90
2019-06-07T05:07:30.987Z,16.60
2019-06-07T05:08:31.977Z,14.50
2019-06-07T05:09:30.265Z,17.20
2019-06-07T05:10:34.351Z,16.60
2019-06-07T05:11:31.981Z,16.60
2019-06-07T05:12:30.262Z,15.80
2019-06-07T05:13:31.603Z,17.80
2019-06-07T05:14:32.518Z,14.80
2019-06-07T05:15:30.257Z,15.90
2019-06-07T05:16:31.265Z,13.70
2019-06-07T05:17:31.712Z,14.00
2019-06-07T05:18:30.261Z,14.70
2019-06-07T05:19:31.198Z,14.50
2019-06-07T05:20:30.252Z,13.80
2019-06-07T05:21:50.285Z,14.30
2019-06-07T05:22:31.607Z,14.20
2019-06-07T05:24:03.575Z,13.00
2019-06-07T05:24:30.732Z,12.20
2019-06-07T05:25:31.837Z,14.20
2019-06-07T05:26:30.559Z,13.00
2019-06-07T05:27:33.574Z,16.50
2019-06-07T05:28:30.246Z,13.20
2019-06-07T05:29:30.779Z,13.60
2019-06-07T05:31:01.998Z,13.20
2019-06-07T05:31:31.081Z,14.40
2019-06-07T05:32:32.898Z,12.30
2019-06-07T05:33:31.135Z,13.00
2019-06-07T05:34:32.250Z,13.00
2019-06-07T05:35:30.643Z,12.60
2019-06-07T05:36:31.487Z,12.00
2019-06-07T05:37:33.511Z,12.30
2019-06-07T05:38:31.050Z,11.60
2019-06-07T05:39:32.110Z,10.30
2019-06-07T05:40:32.940Z,11.40
2019-06-07T05:41:32.302Z,10.70
2019-06-07T05:42:31.800Z,12.00
2019-06-07T05:43:34.326Z,12.90
2019-06-07T05:44:31.558Z,11.70
2019-06-07T05:45:30.239Z,12.20
2019-06-07T05:46:30.239Z,12.10
2019-06-07T05:47:30.237Z,11.30
2019-06-07T05:48:30.244Z,11.20
2019-06-07T05:49:30.248Z,12.50
2019-06-07T05:50:42.597Z,11.60
2019-06-07T05:51:30.250Z,11.00
2019-06-07T05:52:30.236Z,12.10
2019-06-07T05:53:31.721Z,12.00
2019-06-07T05:54:30.248Z,12.10
2019-06-07T05:55:30.235Z,11.70
2019-06-07T05:56:30.232Z,13.80
2019-06-07T05:57:30.230Z,15.50
2019-06-07T05:58:30.230Z,14.60
2019-06-07T05:59:30.231Z,13.90
2019-06-07T06:00:30.240Z,15.90
2019-06-07T06:01:45.992Z,15.20
2019-06-07T06:02:30.230Z,13.10
2019-06-07T06:03:30.228Z,14.00
2019-06-07T06:04:30.229Z,13.40
2019-06-07T06:05:34.415Z,14.60
2019-06-07T06:06:30.228Z,14.10
2019-06-07T06:07:30.227Z,15.00
2019-06-07T06:08:30.223Z,15.00
2019-06-07T06:09:30.223Z,14.60
2019-06-07T06:10:30.232Z,14.00
2019-06-07T06:11:48.070Z,14.40
2019-06-07T06:12:35.188Z,13.90
2019-06-07T06:13:30.226Z,15.10
2019-06-07T06:14:30.221Z,14.70
2019-06-07T06:15:42.169Z,12.70
2019-06-07T06:16:30.227Z,14.30
2019-06-07T06:17:30.235Z,13.40
2019-06-07T06:18:30.219Z,13.20
2019-06-07T06:19:30.227Z,13.20
2019-06-07T06:20:33.085Z,13.40
2019-06-07T06:21:30.221Z,13.10
2019-06-07T06:22:30.216Z,14.80
2019-06-07T06:23:30.215Z,14.70
2019-06-07T06:24:30.216Z,14.00
2019-06-07T06:25:33.139Z,14.10
2019-06-07T06:26:30.214Z,13.20
2019-06-07T06:28:03.485Z,13.50
2019-06-07T06:28:30.223Z,12.90
2019-06-07T06:29:30.216Z,13.40
2019-06-07T06:30:30.231Z,14.80
2019-06-07T06:31:30.210Z,12.50
2019-06-07T06:32:41.989Z,14.20
2019-06-07T06:33:34.407Z,14.20
2019-06-07T06:34:30.219Z,13.80
2019-06-07T06:35:30.229Z,13.70
2019-06-07T06:36:30.211Z,14.90
2019-06-07T06:37:30.212Z,13.50
2019-06-07T06:38:31.420Z,11.80
2019-06-07T06:39:30.205Z,11.20
2019-06-07T06:40:30.242Z,10.90
2019-06-07T06:41:30.205Z,11.40
2019-06-07T06:42:30.211Z,12.40
2019-06-07T06:43:30.205Z,10.70
2019-06-07T06:44:30.206Z,12.40
2019-06-07T06:45:30.204Z,11.50
2019-06-07T06:46:38.974Z,10.30
2019-06-07T06:47:30.204Z,9.40
2019-06-07T06:48:30.201Z,9.90
2019-06-07T06:49:30.206Z,9.70
2019-06-07T06:50:30.203Z,11.50
2019-06-07T06:51:30.208Z,10.20
2019-06-07T06:52:30.198Z,11.20
2019-06-07T06:53:30.200Z,10.70
2019-06-07T06:54:40.852Z,11.70
2019-06-07T06:55:30.202Z,11.00
2019-06-07T06:56:30.223Z,10.50
2019-06-07T06:57:30.196Z,11.80
2019-06-07T06:59:18.659Z,10.40
2019-06-07T06:59:39.512Z,8.20
2019-06-07T07:00:43.566Z,10.70
2019-06-07T07:01:30.204Z,11.40
2019-06-07T07:02:30.191Z,9.80
2019-06-07T07:03:56.503Z,10.10
2019-06-07T07:04:30.190Z,10.50
2019-06-07T07:05:30.192Z,10.70
2019-06-07T07:06:30.201Z,9.30
2019-06-07T07:07:30.240Z,12.00
2019-06-07T07:08:30.192Z,9.80
2019-06-07T07:09:30.196Z,11.10
2019-06-07T07:10:30.188Z,10.80
2019-06-07T07:11:30.196Z,10.10
2019-06-07T07:12:30.185Z,10.40
2019-06-07T07:13:30.186Z,9.30
2019-06-07T07:14:30.189Z,8.50
2019-06-07T07:15:30.194Z,9.60
2019-06-07T07:16:30.212Z,10.30
2019-06-07T07:17:47.958Z,9.80
2019-06-07T07:18:30.185Z,8.80
2019-06-07T07:19:30.184Z,9.40
2019-06-07T07:20:30.215Z,9.70
2019-06-07T07:21:30.194Z,9.40
2019-06-07T07:22:30.181Z,8.50
2019-06-07T07:23:30.182Z,8.20
2019-06-07T07:24:30.190Z,7.70
2019-06-07T07:25:30.181Z,7.20
2019-06-07T07:26:30.179Z,7.60
2019-06-07T07:27:30.185Z,7.50
2019-06-07T07:28:30.177Z,7.80
2019-06-07T07:29:30.181Z,6.90
2019-06-07T07:30:36.514Z,8.10
2019-06-07T07:31:30.357Z,7.60
2019-06-07T07:32:30.185Z,6.60
2019-06-07T07:34:21.067Z,6.90
2019-06-07T07:34:35.336Z,7.80
2019-06-07T07:35:30.179Z,6.60
2019-06-07T07:36:39.260Z,6.40
2019-06-07T07:37:30.184Z,6.90
2019-06-07T07:38:30.174Z,5.30
2019-06-07T07:39:30.175Z,6.60
2019-06-07T07:41:30.180Z,6.60
2019-06-07T07:42:30.183Z,7.20
2019-06-07T07:43:30.177Z,6.20
2019-06-07T07:44:30.169Z,6.70
2019-06-07T07:45:30.169Z,6.20
2019-06-07T07:46:30.444Z,7.20
2019-06-07T07:47:30.176Z,6.20
2019-06-07T07:48:30.166Z,6.00
2019-06-07T07:49:30.175Z,6.50
2019-06-07T07:50:30.167Z,6.60
2019-06-07T07:51:30.171Z,6.60
2019-06-07T07:52:30.174Z,7.00
2019-06-07T07:53:47.660Z,7.10
2019-06-07T07:54:30.165Z,6.30
2019-06-07T07:55:30.202Z,5.80
2019-06-07T07:56:30.161Z,7.10
2019-06-07T07:57:30.173Z,5.50
2019-06-07T07:58:30.163Z,6.50
2019-06-07T07:59:41.757Z,6.00
2019-06-07T08:00:52.435Z,6.50
2019-06-07T08:01:30.166Z,6.40
2019-06-07T08:02:30.166Z,6.00
2019-06-07T08:03:30.171Z,6.40
2019-06-07T08:05:13.038Z,6.20
2019-06-07T08:05:42.377Z,5.90
2019-06-07T08:06:30.158Z,7.50
2019-06-07T08:07:30.580Z,6.40
2019-06-07T08:08:31.091Z,6.70
2019-06-07T08:09:30.155Z,6.50
2019-06-07T08:10:30.154Z,6.50
2019-06-07T08:11:30.155Z,7.60
2019-06-07T08:12:30.157Z,7.10
2019-06-07T08:13:30.164Z,6.30
2019-06-07T08:14:30.154Z,5.60
2019-06-07T08:15:30.155Z,6.10
2019-06-07T08:16:30.154Z,6.70
2019-06-07T08:17:30.160Z,6.40
2019-06-07T08:18:30.160Z,7.50
2019-06-07T08:19:30.153Z,7.60
2019-06-07T08:20:30.149Z,6.50
2019-06-07T08:21:30.164Z,7.50
2019-06-07T08:22:30.154Z,6.00
2019-06-07T08:23:30.150Z,6.60
2019-06-07T08:24:30.211Z,6.50
2019-06-07T08:25:30.146Z,7.00
2019-06-07T08:26:30.149Z,7.00
2019-06-07T08:27:30.153Z,6.80
2019-06-07T08:28:30.146Z,7.00
2019-06-07T08:29:44.149Z,7.00
2019-06-07T08:31:05.750Z,6.30
2019-06-07T08:31:30.157Z,6.00
2019-06-07T08:32:30.144Z,5.60
2019-06-07T08:33:30.144Z,6.10
2019-06-07T08:34:30.191Z,5.60
2019-06-07T08:36:03.900Z,6.20
2019-06-07T08:36:41.345Z,6.00
2019-06-07T08:38:13.477Z,6.60
2019-06-07T08:38:46.910Z,5.90
2019-06-07T08:39:30.163Z,6.10
2019-06-07T08:40:30.138Z,7.50
2019-06-07T08:41:30.140Z,6.10
2019-06-07T08:43:30.140Z,6.40
2019-06-07T08:44:30.148Z,6.10
2019-06-07T08:45:30.139Z,7.30
2019-06-07T08:46:30.136Z,6.50
2019-06-07T08:47:30.193Z,7.00
2019-06-07T08:48:30.503Z,6.70
2019-06-07T08:49:30.146Z,6.70
2019-06-07T08:50:30.133Z,6.40
2019-06-07T08:51:30.132Z,6.80
2019-06-07T08:52:30.131Z,7.00
2019-06-07T08:53:30.131Z,6.30
2019-06-07T08:54:30.146Z,5.80
2019-06-07T08:55:30.132Z,5.10
2019-06-07T08:56:30.131Z,7.10
2019-06-07T08:57:30.131Z,6.40
2019-06-07T08:58:30.130Z,5.20
2019-06-07T08:59:30.140Z,6.90
2019-06-07T09:00:45.323Z,7.10
2019-06-07T09:01:30.163Z,7.00
2019-06-07T09:02:30.126Z,6.30
2019-06-07T09:03:30.127Z,7.40
2019-06-07T09:04:30.134Z,6.40
2019-06-07T09:05:30.125Z,6.70
2019-06-07T09:07:30.124Z,5.50
2019-06-07T09:08:31.022Z,6.80
2019-06-07T09:09:30.138Z,5.00
2019-06-07T09:10:30.127Z,6.40
2019-06-07T09:11:30.158Z,6.20
2019-06-07T09:12:30.164Z,6.10
2019-06-07T09:13:30.124Z,7.20
2019-06-07T09:14:30.120Z,6.00
2019-06-07T09:15:30.128Z,5.10
2019-06-07T09:16:30.119Z,4.80
2019-06-07T09:17:30.120Z,5.30
2019-06-07T09:18:42.207Z,6.20
2019-06-07T09:19:30.117Z,6.70
2019-06-07T09:20:36.994Z,6.30
2019-06-07T09:21:30.150Z,5.10
2019-06-07T09:22:30.117Z,6.10
2019-06-07T09:23:30.116Z,5.70
2019-06-07T09:24:30.114Z,5.50
2019-06-07T09:25:30.127Z,4.80
2019-06-07T09:26:30.115Z,5.10
2019-06-07T09:27:30.119Z,3.80
2019-06-07T09:28:30.113Z,5.20
2019-06-07T09:29:30.161Z,5.20
2019-06-07T09:30:30.124Z,5.00
2019-06-07T09:31:51.371Z,5.20
2019-06-07T09:32:30.111Z,5.30
2019-06-07T09:33:30.115Z,5.20
2019-06-07T09:34:30.115Z,4.90
2019-06-07T09:35:30.127Z,4.30
2019-06-07T09:36:30.113Z,4.60
2019-06-07T09:38:30.106Z,5.30
2019-06-07T09:39:30.106Z,4.60
2019-06-07T09:40:30.109Z,5.50
2019-06-07T09:41:46.772Z,4.60
2019-06-07T09:42:30.110Z,4.90
2019-06-07T09:44:00.871Z,5.20
2019-06-07T09:44:30.102Z,4.50
2019-06-07T09:45:30.102Z,5.10
2019-06-07T09:46:30.112Z,4.50
2019-06-07T09:47:32.838Z,4.20
2019-06-07T09:49:32.451Z,4.60
2019-06-07T09:50:30.102Z,4.80
2019-06-07T09:51:30.133Z,3.80
2019-06-07T09:52:30.098Z,4.60
2019-06-07T09:53:30.106Z,4.60
2019-06-07T09:55:04.038Z,4.50
2019-06-07T09:55:30.100Z,4.50
2019-06-07T09:56:30.109Z,4.10
2019-06-07T09:57:30.098Z,4.20
2019-06-07T09:58:50.988Z,4.00
2019-06-07T09:59:30.098Z,4.50
2019-06-07T10:00:41.371Z,3.70
2019-06-07T10:01:30.114Z,4.60
2019-06-07T10:02:30.097Z,3.40
2019-06-07T10:03:30.100Z,4.30
2019-06-07T10:04:31.572Z,4.00
2019-06-07T10:05:30.092Z,4.30
2019-06-07T10:06:30.100Z,4.20
2019-06-07T10:07:32.058Z,4.10
2019-06-07T10:11:30.109Z,4.70
2019-06-07T10:12:30.088Z,4.70
2019-06-07T10:13:30.113Z,5.20
2019-06-07T10:14:30.087Z,4.20
2019-06-07T10:15:30.088Z,3.50
2019-06-07T10:16:37.386Z,3.80
2019-06-07T10:17:30.087Z,5.80
2019-06-07T10:18:30.088Z,5.20
2019-06-07T10:19:30.086Z,5.60
2019-06-07T10:20:30.089Z,4.80
2019-06-07T10:21:30.094Z,5.10
2019-06-07T10:22:30.087Z,4.50
2019-06-07T10:23:30.088Z,4.20
2019-06-07T10:24:30.094Z,5.20
2019-06-07T10:25:30.083Z,4.30
2019-06-07T10:26:30.080Z,4.70
2019-06-07T10:27:30.094Z,4.90
2019-06-07T10:28:30.078Z,6.00
2019-06-07T10:29:30.094Z,4.60
2019-06-07T10:30:30.082Z,5.00
2019-06-07T10:31:30.088Z,5.10
2019-06-07T10:32:30.086Z,5.50
2019-06-07T10:33:30.078Z,4.60
2019-06-07T10:34:30.093Z,5.20
2019-06-07T10:35:30.082Z,5.30
2019-06-07T10:36:30.081Z,3.80
2019-06-07T10:37:30.087Z,6.50
2019-06-07T10:38:30.079Z,8.80
2019-06-07T10:39:30.080Z,6.90
2019-06-07T10:40:30.071Z,13.30
2019-06-07T10:41:30.074Z,8.40
2019-06-07T10:42:30.100Z,15.40
2019-06-07T10:43:30.074Z,6.20
2019-06-07T10:44:30.072Z,7.00
2019-06-07T10:45:30.077Z,8.50
2019-06-07T10:46:30.075Z,5.80
2019-06-07T10:47:30.086Z,9.30
2019-06-07T10:48:30.067Z,5.60
2019-06-07T10:49:30.068Z,5.60
2019-06-07T10:50:30.070Z,5.50
2019-06-07T10:51:30.072Z,5.60
2019-06-07T10:52:30.065Z,7.10
2019-06-07T10:53:30.076Z,5.20
2019-06-07T10:54:30.896Z,4.40
2019-06-07T10:55:30.065Z,5.90
2019-06-07T10:56:30.064Z,7.20
2019-06-07T10:57:30.063Z,4.80
2019-06-07T10:58:30.114Z,4.80
2019-06-07T10:59:30.062Z,4.50
2019-06-07T11:00:30.062Z,3.90
2019-06-07T11:01:30.060Z,4.40
2019-06-07T11:02:30.065Z,4.20
2019-06-07T11:03:30.070Z,6.00
2019-06-07T11:04:30.064Z,5.70
2019-06-07T11:05:30.066Z,5.30
2019-06-07T11:06:30.065Z,4.60
2019-06-07T11:07:30.059Z,5.50
2019-06-07T11:08:30.070Z,4.20
2019-06-07T11:09:30.063Z,5.20
2019-06-07T11:10:30.061Z,10.90
2019-06-07T11:11:30.067Z,9.30
2019-06-07T11:12:30.056Z,4.20
2019-06-07T11:13:30.064Z,4.80
2019-06-07T11:14:30.055Z,10.00
2019-06-07T11:15:30.053Z,5.40
2019-06-07T11:16:30.055Z,5.40
2019-06-07T11:17:30.052Z,4.60
2019-06-07T11:18:30.065Z,5.10
2019-06-07T11:19:30.054Z,3.70
2019-06-07T11:20:30.050Z,4.90
2019-06-07T11:21:30.051Z,4.30
2019-06-07T11:22:30.052Z,4.10
2019-06-07T11:23:30.059Z,4.70
2019-06-07T11:24:30.059Z,6.00
2019-06-07T11:25:30.050Z,4.90
2019-06-07T11:26:30.053Z,4.90
2019-06-07T11:27:30.051Z,4.30
2019-06-07T11:28:30.044Z,4.70
2019-06-07T11:29:30.053Z,3.90
2019-06-07T11:30:30.045Z,4.80
2019-06-07T11:31:30.046Z,4.20
2019-06-07T11:32:30.045Z,3.90
2019-06-07T11:33:30.044Z,4.60
2019-06-07T11:34:30.060Z,3.70
2019-06-07T11:35:30.044Z,5.10
2019-06-07T11:36:30.112Z,3.90
2019-06-07T11:37:30.049Z,3.70
2019-06-07T11:38:30.047Z,4.10
2019-06-07T11:39:30.055Z,3.60
2019-06-07T11:40:35.733Z,4.30
2019-06-07T11:41:30.037Z,4.10
2019-06-07T11:42:30.040Z,3.60
2019-06-07T11:43:30.054Z,4.70
2019-06-07T11:44:30.052Z,4.60
2019-06-07T11:45:30.036Z,4.20
2019-06-07T11:46:30.038Z,3.80
2019-06-07T11:47:30.076Z,4.60
2019-06-07T11:48:30.040Z,3.80
2019-06-07T11:49:30.046Z,4.70
2019-06-07T11:50:30.034Z,5.30
2019-06-07T11:51:30.036Z,4.70
2019-06-07T11:52:30.033Z,4.20
2019-06-07T11:53:30.033Z,4.20
2019-06-07T11:54:31.016Z,4.10
2019-06-07T11:55:30.033Z,4.30
2019-06-07T11:56:30.031Z,4.40
2019-06-07T11:57:30.058Z,3.80
2019-06-07T11:58:30.035Z,4.40
2019-06-07T11:59:30.052Z,3.30
2019-06-07T12:00:33.887Z,3.70
2019-06-07T12:01:30.550Z,3.40
2019-06-07T12:02:30.031Z,4.20
2019-06-07T12:03:30.032Z,4.10
2019-06-07T12:04:35.000Z,4.50
2019-06-07T12:05:30.033Z,4.20
2019-06-07T12:06:30.029Z,3.70
2019-06-07T12:07:30.029Z,3.90
2019-06-07T12:08:30.043Z,4.20
2019-06-07T12:09:30.034Z,4.30
2019-06-07T12:10:41.743Z,3.90
2019-06-07T12:11:30.032Z,3.30
2019-06-07T12:12:30.022Z,4.10
2019-06-07T12:13:30.022Z,3.60
2019-06-07T12:14:30.625Z,3.90
2019-06-07T12:15:30.028Z,4.50
2019-06-07T12:16:30.022Z,3.30
2019-06-07T12:17:30.022Z,3.70
2019-06-07T12:18:30.022Z,3.50
2019-06-07T12:19:30.023Z,3.80
2019-06-07T12:20:30.028Z,4.00
2019-06-07T12:21:30.016Z,4.40
2019-06-07T12:22:30.022Z,3.80
2019-06-07T12:23:30.017Z,3.40
2019-06-07T12:24:30.025Z,4.00
2019-06-07T12:25:30.025Z,4.00
2019-06-07T12:26:30.015Z,3.80
2019-06-07T12:27:30.016Z,4.00
2019-06-07T12:28:30.015Z,4.10
2019-06-07T12:29:30.013Z,4.00
2019-06-07T12:30:30.023Z,3.60
2019-06-07T12:31:30.028Z,3.50
2019-06-07T12:32:30.024Z,3.30
2019-06-07T12:33:30.021Z,3.90
2019-06-07T12:34:30.014Z,3.80
2019-06-07T12:35:30.023Z,3.40
2019-06-07T12:36:30.010Z,4.90
2019-06-07T12:37:43.061Z,3.90
2019-06-07T12:38:30.009Z,4.30
2019-06-07T12:39:30.009Z,4.30
2019-06-07T12:40:32.264Z,3.80
2019-06-07T12:41:30.010Z,4.00
2019-06-07T12:42:30.010Z,4.10
2019-06-07T12:43:30.007Z,4.30
2019-06-07T12:44:30.009Z,4.70
2019-06-07T12:45:44.334Z,4.60
2019-06-07T12:46:30.006Z,4.80
2019-06-07T12:47:30.004Z,4.30
2019-06-07T12:48:30.005Z,3.90
2019-06-07T12:49:30.002Z,3.60
2019-06-07T12:50:42.714Z,3.60
2019-06-07T12:51:30.011Z,4.10
2019-06-07T12:52:30.005Z,4.00
2019-06-07T12:53:30.001Z,4.30
2019-06-07T12:54:30.002Z,3.80
2019-06-07T12:55:30.002Z,3.60
2019-06-07T12:56:30.009Z,4.60
2019-06-07T12:57:30.013Z,3.80
2019-06-07T12:58:35.326Z,4.20
2019-06-07T12:59:30.006Z,3.50
2019-06-07T13:00:29.996Z,4.10
2019-06-07T13:01:30.004Z,3.60
2019-06-07T13:02:29.999Z,4.60
2019-06-07T13:03:30.009Z,4.10
2019-06-07T13:04:30.001Z,3.50
2019-06-07T13:05:29.997Z,3.90
2019-06-07T13:06:30.005Z,4.40
2019-06-07T13:07:30.707Z,3.30
2019-06-07T13:08:29.994Z,3.60
2019-06-07T13:09:30.009Z,3.90
2019-06-07T13:10:29.998Z,3.80
2019-06-07T13:11:31.694Z,3.60
2019-06-07T13:12:29.996Z,4.50
2019-06-07T13:13:29.991Z,4.30
2019-06-07T13:14:29.991Z,4.30
2019-06-07T13:15:29.992Z,3.90
2019-06-07T13:16:29.987Z,3.70